sensor_id;sensor_type;location;lat;lon;timestamp;P1;durP1;ratioP1;P2;durP2;ratioP2
75928;SDS011;64606;44.062;2.986;2023-05-20T00:01:19;7.70;;;4.05;;
75928;SDS011;64606;44.062;2.986;2023-05-20T00:03:45;6.63;;;3.38;;
75928;SDS011;64606;44.062;2.986;2023-05-20T00:06:11;8.02;;;4.15;;
75928;SDS011;64606;44.062;2.986;2023-05-20T00:08:37;8.02;;;4.07;;
75928;SDS011;64606;44.062;2.986;2023-05-20T00:11:03;11.52;;;4.40;;
75928;SDS011;64606;44.062;2.986;2023-05-20T00:13:30;10.57;;;4.18;;
75928;SDS011;64606;44.062;2.986;2023-05-20T00:15:56;9.35;;;3.92;;
75928;SDS011;64606;44.062;2.986;2023-05-20T00:18:22;9.25;;;3.92;;
75928;SDS011;64606;44.062;2.986;2023-05-20T00:20:49;8.40;;;3.90;;
75928;SDS011;64606;44.062;2.986;2023-05-20T00:23:15;8.63;;;3.88;;
75928;SDS011;64606;44.062;2.986;2023-05-20T00:25:41;7.25;;;3.90;;
75928;SDS011;64606;44.062;2.986;2023-05-20T00:28:07;10.82;;;3.95;;
75928;SDS011;64606;44.062;2.986;2023-05-20T00:30:33;7.13;;;3.45;;
75928;SDS011;64606;44.062;2.986;2023-05-20T00:32:59;8.27;;;3.72;;
75928;SDS011;64606;44.062;2.986;2023-05-20T00:35:25;8.98;;;3.78;;
75928;SDS011;64606;44.062;2.986;2023-05-20T00:37:51;8.27;;;3.88;;
75928;SDS011;64606;44.062;2.986;2023-05-20T00:40:17;8.18;;;4.10;;
75928;SDS011;64606;44.062;2.986;2023-05-20T00:42:45;8.40;;;3.85;;
75928;SDS011;64606;44.062;2.986;2023-05-20T00:45:11;9.68;;;4.10;;
75928;SDS011;64606;44.062;2.986;2023-05-20T00:47:38;8.77;;;4.50;;
75928;SDS011;64606;44.062;2.986;2023-05-20T00:50:04;7.32;;;3.67;;
75928;SDS011;64606;44.062;2.986;2023-05-20T00:52:31;6.95;;;3.90;;
75928;SDS011;64606;44.062;2.986;2023-05-20T00:54:57;7.05;;;3.70;;
75928;SDS011;64606;44.062;2.986;2023-05-20T00:57:24;11.25;;;3.60;;
75928;SDS011;64606;44.062;2.986;2023-05-20T00:59:50;6.18;;;3.65;;
75928;SDS011;64606;44.062;2.986;2023-05-20T01:02:16;10.00;;;3.67;;
75928;SDS011;64606;44.062;2.986;2023-05-20T01:04:42;7.25;;;3.63;;
75928;SDS011;64606;44.062;2.986;2023-05-20T01:07:11;6.13;;;3.67;;
75928;SDS011;64606;44.062;2.986;2023-05-20T01:09:38;7.55;;;3.78;;
75928;SDS011;64606;44.062;2.986;2023-05-20T01:12:21;6.82;;;3.83;;
75928;SDS011;64606;44.062;2.986;2023-05-20T01:14:49;9.30;;;3.90;;
75928;SDS011;64606;44.062;2.986;2023-05-20T01:17:16;7.50;;;4.30;;
75928;SDS011;64606;44.062;2.986;2023-05-20T01:19:44;7.82;;;3.88;;
75928;SDS011;64606;44.062;2.986;2023-05-20T01:22:13;7.20;;;4.00;;
75928;SDS011;64606;44.062;2.986;2023-05-20T01:24:43;7.82;;;3.60;;
75928;SDS011;64606;44.062;2.986;2023-05-20T01:27:10;7.90;;;3.97;;
75928;SDS011;64606;44.062;2.986;2023-05-20T01:29:37;6.25;;;3.88;;
75928;SDS011;64606;44.062;2.986;2023-05-20T01:32:07;8.30;;;3.60;;
75928;SDS011;64606;44.062;2.986;2023-05-20T01:34:34;8.27;;;4.35;;
75928;SDS011;64606;44.062;2.986;2023-05-20T01:37:02;7.25;;;3.70;;
75928;SDS011;64606;44.062;2.986;2023-05-20T01:39:30;10.32;;;4.20;;
75928;SDS011;64606;44.062;2.986;2023-05-20T01:41:56;8.07;;;4.53;;
75928;SDS011;64606;44.062;2.986;2023-05-20T01:44:23;8.95;;;4.07;;
75928;SDS011;64606;44.062;2.986;2023-05-20T01:46:49;9.00;;;3.97;;
75928;SDS011;64606;44.062;2.986;2023-05-20T01:49:15;6.65;;;4.10;;
75928;SDS011;64606;44.062;2.986;2023-05-20T01:51:41;7.57;;;4.03;;
75928;SDS011;64606;44.062;2.986;2023-05-20T01:54:07;6.05;;;3.90;;
75928;SDS011;64606;44.062;2.986;2023-05-20T01:56:33;7.78;;;3.80;;
75928;SDS011;64606;44.062;2.986;2023-05-20T01:58:59;6.60;;;4.10;;
75928;SDS011;64606;44.062;2.986;2023-05-20T02:01:25;11.05;;;4.53;;
75928;SDS011;64606;44.062;2.986;2023-05-20T02:03:51;7.05;;;4.05;;
75928;SDS011;64606;44.062;2.986;2023-05-20T02:06:17;6.10;;;4.20;;
75928;SDS011;64606;44.062;2.986;2023-05-20T02:08:44;9.02;;;4.15;;
75928;SDS011;64606;44.062;2.986;2023-05-20T02:11:10;9.77;;;3.90;;
75928;SDS011;64606;44.062;2.986;2023-05-20T02:13:37;7.18;;;4.35;;
75928;SDS011;64606;44.062;2.986;2023-05-20T02:16:03;9.30;;;3.90;;
75928;SDS011;64606;44.062;2.986;2023-05-20T02:18:30;7.47;;;3.72;;
75928;SDS011;64606;44.062;2.986;2023-05-20T02:21:00;7.45;;;3.50;;
75928;SDS011;64606;44.062;2.986;2023-05-20T02:23:28;6.15;;;3.53;;
75928;SDS011;64606;44.062;2.986;2023-05-20T02:25:54;12.65;;;3.63;;
75928;SDS011;64606;44.062;2.986;2023-05-20T02:28:20;10.00;;;3.55;;
75928;SDS011;64606;44.062;2.986;2023-05-20T02:30:46;9.13;;;3.15;;
75928;SDS011;64606;44.062;2.986;2023-05-20T02:33:15;5.43;;;3.47;;
75928;SDS011;64606;44.062;2.986;2023-05-20T02:35:41;6.43;;;3.35;;
75928;SDS011;64606;44.062;2.986;2023-05-20T02:38:07;8.45;;;3.67;;
75928;SDS011;64606;44.062;2.986;2023-05-20T02:40:33;14.05;;;3.80;;
75928;SDS011;64606;44.062;2.986;2023-05-20T02:42:59;7.15;;;3.40;;
75928;SDS011;64606;44.062;2.986;2023-05-20T02:45:26;5.00;;;3.13;;
75928;SDS011;64606;44.062;2.986;2023-05-20T02:47:52;5.75;;;3.35;;
75928;SDS011;64606;44.062;2.986;2023-05-20T02:50:18;7.57;;;3.22;;
75928;SDS011;64606;44.062;2.986;2023-05-20T02:52:44;6.45;;;3.28;;
75928;SDS011;64606;44.062;2.986;2023-05-20T02:55:11;4.60;;;3.20;;
75928;SDS011;64606;44.062;2.986;2023-05-20T02:57:37;4.80;;;3.25;;
75928;SDS011;64606;44.062;2.986;2023-05-20T03:00:04;5.93;;;3.70;;
75928;SDS011;64606;44.062;2.986;2023-05-20T03:02:31;5.93;;;3.30;;
75928;SDS011;64606;44.062;2.986;2023-05-20T03:04:57;6.15;;;3.35;;
75928;SDS011;64606;44.062;2.986;2023-05-20T03:07:24;9.07;;;3.83;;
75928;SDS011;64606;44.062;2.986;2023-05-20T03:09:50;7.75;;;3.80;;
75928;SDS011;64606;44.062;2.986;2023-05-20T03:12:16;9.20;;;3.72;;
75928;SDS011;64606;44.062;2.986;2023-05-20T03:14:42;6.30;;;3.30;;
75928;SDS011;64606;44.062;2.986;2023-05-20T03:17:09;6.82;;;3.38;;
75928;SDS011;64606;44.062;2.986;2023-05-20T03:19:36;6.43;;;3.50;;
75928;SDS011;64606;44.062;2.986;2023-05-20T03:22:02;8.77;;;3.42;;
75928;SDS011;64606;44.062;2.986;2023-05-20T03:24:28;8.85;;;3.70;;
75928;SDS011;64606;44.062;2.986;2023-05-20T03:26:54;5.78;;;3.53;;
75928;SDS011;64606;44.062;2.986;2023-05-20T03:29:21;9.45;;;3.70;;
75928;SDS011;64606;44.062;2.986;2023-05-20T03:31:47;11.82;;;3.88;;
75928;SDS011;64606;44.062;2.986;2023-05-20T03:34:14;6.47;;;3.88;;
75928;SDS011;64606;44.062;2.986;2023-05-20T03:36:40;6.45;;;3.70;;
75928;SDS011;64606;44.062;2.986;2023-05-20T03:39:06;8.85;;;3.70;;
75928;SDS011;64606;44.062;2.986;2023-05-20T03:41:32;7.10;;;3.70;;
75928;SDS011;64606;44.062;2.986;2023-05-20T03:43:59;7.00;;;3.75;;
75928;SDS011;64606;44.062;2.986;2023-05-20T03:46:25;6.60;;;3.30;;
75928;SDS011;64606;44.062;2.986;2023-05-20T03:48:51;7.13;;;3.38;;
75928;SDS011;64606;44.062;2.986;2023-05-20T03:51:17;6.63;;;3.88;;
75928;SDS011;64606;44.062;2.986;2023-05-20T03:53:43;5.53;;;3.55;;
75928;SDS011;64606;44.062;2.986;2023-05-20T03:56:10;7.78;;;3.65;;
75928;SDS011;64606;44.062;2.986;2023-05-20T03:58:36;7.18;;;3.55;;
75928;SDS011;64606;44.062;2.986;2023-05-20T04:01:02;8.82;;;3.80;;
75928;SDS011;64606;44.062;2.986;2023-05-20T04:03:28;7.20;;;4.10;;
75928;SDS011;64606;44.062;2.986;2023-05-20T04:05:55;8.20;;;4.22;;
75928;SDS011;64606;44.062;2.986;2023-05-20T04:08:21;8.65;;;4.05;;
75928;SDS011;64606;44.062;2.986;2023-05-20T04:10:50;8.10;;;3.58;;
75928;SDS011;64606;44.062;2.986;2023-05-20T04:13:16;10.32;;;4.20;;
75928;SDS011;64606;44.062;2.986;2023-05-20T04:15:42;8.75;;;3.97;;
75928;SDS011;64606;44.062;2.986;2023-05-20T04:18:08;7.57;;;4.13;;
75928;SDS011;64606;44.062;2.986;2023-05-20T04:20:34;6.85;;;3.72;;
75928;SDS011;64606;44.062;2.986;2023-05-20T04:23:00;10.13;;;4.15;;
75928;SDS011;64606;44.062;2.986;2023-05-20T04:25:26;8.73;;;4.20;;
75928;SDS011;64606;44.062;2.986;2023-05-20T04:27:52;9.80;;;4.97;;
75928;SDS011;64606;44.062;2.986;2023-05-20T04:30:18;9.73;;;3.60;;
75928;SDS011;64606;44.062;2.986;2023-05-20T04:32:46;8.90;;;4.43;;
75928;SDS011;64606;44.062;2.986;2023-05-20T04:35:12;6.97;;;3.90;;
75928;SDS011;64606;44.062;2.986;2023-05-20T04:37:38;9.32;;;4.07;;
75928;SDS011;64606;44.062;2.986;2023-05-20T04:40:06;7.35;;;3.80;;
75928;SDS011;64606;44.062;2.986;2023-05-20T04:42:33;10.75;;;3.92;;
75928;SDS011;64606;44.062;2.986;2023-05-20T04:44:59;6.57;;;3.70;;
75928;SDS011;64606;44.062;2.986;2023-05-20T04:47:30;9.75;;;3.60;;
75928;SDS011;64606;44.062;2.986;2023-05-20T04:50:02;8.32;;;4.03;;
75928;SDS011;64606;44.062;2.986;2023-05-20T04:52:28;7.75;;;3.88;;
75928;SDS011;64606;44.062;2.986;2023-05-20T04:54:55;9.02;;;4.32;;
75928;SDS011;64606;44.062;2.986;2023-05-20T04:57:22;6.25;;;3.95;;
75928;SDS011;64606;44.062;2.986;2023-05-20T04:59:49;10.10;;;4.63;;
75928;SDS011;64606;44.062;2.986;2023-05-20T05:02:16;14.55;;;4.25;;
75928;SDS011;64606;44.062;2.986;2023-05-20T05:04:42;8.15;;;4.55;;
75928;SDS011;64606;44.062;2.986;2023-05-20T05:07:08;10.25;;;4.72;;
75928;SDS011;64606;44.062;2.986;2023-05-20T05:09:35;10.55;;;4.80;;
75928;SDS011;64606;44.062;2.986;2023-05-20T05:12:01;9.93;;;4.78;;
75928;SDS011;64606;44.062;2.986;2023-05-20T05:14:27;8.93;;;4.85;;
75928;SDS011;64606;44.062;2.986;2023-05-20T05:16:53;10.10;;;5.00;;
75928;SDS011;64606;44.062;2.986;2023-05-20T05:19:19;10.57;;;4.82;;
75928;SDS011;64606;44.062;2.986;2023-05-20T05:21:46;9.40;;;4.72;;
75928;SDS011;64606;44.062;2.986;2023-05-20T05:24:12;7.22;;;4.32;;
75928;SDS011;64606;44.062;2.986;2023-05-20T05:26:38;10.45;;;4.85;;
75928;SDS011;64606;44.062;2.986;2023-05-20T05:29:04;10.80;;;4.78;;
75928;SDS011;64606;44.062;2.986;2023-05-20T05:31:30;8.95;;;4.70;;
75928;SDS011;64606;44.062;2.986;2023-05-20T05:33:57;9.20;;;4.68;;
75928;SDS011;64606;44.062;2.986;2023-05-20T05:36:23;12.50;;;5.63;;
75928;SDS011;64606;44.062;2.986;2023-05-20T05:38:50;21.52;;;6.90;;
75928;SDS011;64606;44.062;2.986;2023-05-20T05:41:16;16.17;;;5.88;;
75928;SDS011;64606;44.062;2.986;2023-05-20T05:43:42;12.93;;;5.95;;
75928;SDS011;64606;44.062;2.986;2023-05-20T05:46:08;10.57;;;5.38;;
75928;SDS011;64606;44.062;2.986;2023-05-20T05:48:35;13.10;;;5.30;;
75928;SDS011;64606;44.062;2.986;2023-05-20T05:51:01;10.65;;;4.97;;
75928;SDS011;64606;44.062;2.986;2023-05-20T05:53:27;10.52;;;4.50;;
75928;SDS011;64606;44.062;2.986;2023-05-20T05:55:53;10.82;;;5.40;;
75928;SDS011;64606;44.062;2.986;2023-05-20T05:58:19;10.65;;;5.63;;
75928;SDS011;64606;44.062;2.986;2023-05-20T06:00:45;8.75;;;4.68;;
75928;SDS011;64606;44.062;2.986;2023-05-20T06:03:11;12.32;;;4.75;;
75928;SDS011;64606;44.062;2.986;2023-05-20T06:05:37;9.63;;;5.10;;
75928;SDS011;64606;44.062;2.986;2023-05-20T06:08:04;8.75;;;4.85;;
75928;SDS011;64606;44.062;2.986;2023-05-20T06:10:30;8.15;;;4.97;;
75928;SDS011;64606;44.062;2.986;2023-05-20T06:12:56;11.73;;;4.80;;
75928;SDS011;64606;44.062;2.986;2023-05-20T06:15:22;10.60;;;4.78;;
75928;SDS011;64606;44.062;2.986;2023-05-20T06:17:48;7.65;;;4.55;;
75928;SDS011;64606;44.062;2.986;2023-05-20T06:20:14;8.75;;;5.00;;
75928;SDS011;64606;44.062;2.986;2023-05-20T06:22:40;8.82;;;4.55;;
75928;SDS011;64606;44.062;2.986;2023-05-20T06:25:06;9.20;;;4.90;;
75928;SDS011;64606;44.062;2.986;2023-05-20T06:27:33;12.43;;;4.90;;
75928;SDS011;64606;44.062;2.986;2023-05-20T06:29:59;7.97;;;4.38;;
75928;SDS011;64606;44.062;2.986;2023-05-20T06:32:25;10.13;;;4.88;;
75928;SDS011;64606;44.062;2.986;2023-05-20T06:34:52;8.30;;;4.38;;
75928;SDS011;64606;44.062;2.986;2023-05-20T06:37:18;12.20;;;4.72;;
75928;SDS011;64606;44.062;2.986;2023-05-20T06:39:44;10.45;;;4.70;;
75928;SDS011;64606;44.062;2.986;2023-05-20T06:42:11;12.45;;;4.60;;
75928;SDS011;64606;44.062;2.986;2023-05-20T06:44:37;8.10;;;4.82;;
75928;SDS011;64606;44.062;2.986;2023-05-20T06:47:04;9.35;;;4.28;;
75928;SDS011;64606;44.062;2.986;2023-05-20T06:49:30;10.85;;;4.82;;
75928;SDS011;64606;44.062;2.986;2023-05-20T06:51:56;9.82;;;4.80;;
75928;SDS011;64606;44.062;2.986;2023-05-20T06:54:22;7.60;;;4.40;;
75928;SDS011;64606;44.062;2.986;2023-05-20T06:56:48;8.30;;;4.63;;
75928;SDS011;64606;44.062;2.986;2023-05-20T06:59:14;7.38;;;4.35;;
75928;SDS011;64606;44.062;2.986;2023-05-20T07:01:40;11.45;;;4.93;;
75928;SDS011;64606;44.062;2.986;2023-05-20T07:04:06;10.52;;;4.28;;
75928;SDS011;64606;44.062;2.986;2023-05-20T07:06:33;8.55;;;4.13;;
75928;SDS011;64606;44.062;2.986;2023-05-20T07:08:59;9.75;;;4.20;;
75928;SDS011;64606;44.062;2.986;2023-05-20T07:11:25;9.68;;;4.13;;
75928;SDS011;64606;44.062;2.986;2023-05-20T07:13:51;7.07;;;4.35;;
75928;SDS011;64606;44.062;2.986;2023-05-20T07:16:17;12.07;;;4.53;;
75928;SDS011;64606;44.062;2.986;2023-05-20T07:18:43;8.38;;;4.45;;
75928;SDS011;64606;44.062;2.986;2023-05-20T07:21:09;8.52;;;4.60;;
75928;SDS011;64606;44.062;2.986;2023-05-20T07:23:36;11.15;;;4.68;;
75928;SDS011;64606;44.062;2.986;2023-05-20T07:26:02;6.50;;;3.97;;
75928;SDS011;64606;44.062;2.986;2023-05-20T07:28:28;9.35;;;4.40;;
75928;SDS011;64606;44.062;2.986;2023-05-20T07:30:54;8.90;;;4.20;;
75928;SDS011;64606;44.062;2.986;2023-05-20T07:33:22;7.15;;;4.22;;
75928;SDS011;64606;44.062;2.986;2023-05-20T07:35:48;6.70;;;3.92;;
75928;SDS011;64606;44.062;2.986;2023-05-20T07:38:14;8.15;;;4.45;;
75928;SDS011;64606;44.062;2.986;2023-05-20T07:40:40;7.55;;;3.85;;
75928;SDS011;64606;44.062;2.986;2023-05-20T07:43:07;10.68;;;4.38;;
75928;SDS011;64606;44.062;2.986;2023-05-20T07:45:35;9.38;;;4.65;;
75928;SDS011;64606;44.062;2.986;2023-05-20T07:48:02;11.02;;;4.38;;
75928;SDS011;64606;44.062;2.986;2023-05-20T07:50:28;11.18;;;4.07;;
75928;SDS011;64606;44.062;2.986;2023-05-20T07:52:54;7.43;;;3.53;;
75928;SDS011;64606;44.062;2.986;2023-05-20T07:55:21;5.30;;;3.33;;
75928;SDS011;64606;44.062;2.986;2023-05-20T07:57:47;7.00;;;3.60;;
75928;SDS011;64606;44.062;2.986;2023-05-20T08:00:13;7.60;;;3.42;;
75928;SDS011;64606;44.062;2.986;2023-05-20T08:02:40;9.35;;;3.60;;
75928;SDS011;64606;44.062;2.986;2023-05-20T08:05:06;7.40;;;3.20;;
75928;SDS011;64606;44.062;2.986;2023-05-20T08:07:32;5.00;;;3.25;;
75928;SDS011;64606;44.062;2.986;2023-05-20T08:09:58;7.00;;;3.70;;
75928;SDS011;64606;44.062;2.986;2023-05-20T08:12:25;8.50;;;3.33;;
75928;SDS011;64606;44.062;2.986;2023-05-20T08:14:52;5.18;;;3.22;;
75928;SDS011;64606;44.062;2.986;2023-05-20T08:17:18;5.07;;;2.83;;
75928;SDS011;64606;44.062;2.986;2023-05-20T08:19:44;6.43;;;3.40;;
75928;SDS011;64606;44.062;2.986;2023-05-20T08:22:11;6.38;;;2.70;;
75928;SDS011;64606;44.062;2.986;2023-05-20T08:24:37;8.38;;;2.95;;
75928;SDS011;64606;44.062;2.986;2023-05-20T08:27:03;5.07;;;2.80;;
75928;SDS011;64606;44.062;2.986;2023-05-20T08:29:29;6.47;;;3.00;;
75928;SDS011;64606;44.062;2.986;2023-05-20T08:31:55;4.60;;;2.75;;
75928;SDS011;64606;44.062;2.986;2023-05-20T08:34:21;5.50;;;2.95;;
75928;SDS011;64606;44.062;2.986;2023-05-20T08:36:48;7.45;;;2.80;;
75928;SDS011;64606;44.062;2.986;2023-05-20T08:39:14;6.15;;;2.60;;
75928;SDS011;64606;44.062;2.986;2023-05-20T08:41:40;6.55;;;2.75;;
75928;SDS011;64606;44.062;2.986;2023-05-20T08:44:06;5.13;;;2.75;;
75928;SDS011;64606;44.062;2.986;2023-05-20T08:46:37;5.55;;;2.60;;
75928;SDS011;64606;44.062;2.986;2023-05-20T08:49:04;5.15;;;2.55;;
75928;SDS011;64606;44.062;2.986;2023-05-20T08:51:31;7.30;;;2.78;;
75928;SDS011;64606;44.062;2.986;2023-05-20T08:53:58;7.63;;;2.30;;
75928;SDS011;64606;44.062;2.986;2023-05-20T08:56:25;5.97;;;2.60;;
75928;SDS011;64606;44.062;2.986;2023-05-20T08:58:51;9.57;;;2.60;;
75928;SDS011;64606;44.062;2.986;2023-05-20T09:01:18;3.88;;;2.30;;
75928;SDS011;64606;44.062;2.986;2023-05-20T09:03:44;5.45;;;2.30;;
75928;SDS011;64606;44.062;2.986;2023-05-20T09:06:14;4.65;;;2.10;;
75928;SDS011;64606;44.062;2.986;2023-05-20T09:08:41;4.60;;;2.20;;
75928;SDS011;64606;44.062;2.986;2023-05-20T09:11:09;4.25;;;2.15;;
75928;SDS011;64606;44.062;2.986;2023-05-20T09:13:35;4.65;;;2.10;;
75928;SDS011;64606;44.062;2.986;2023-05-20T09:16:01;3.85;;;2.00;;
75928;SDS011;64606;44.062;2.986;2023-05-20T09:18:28;3.28;;;2.10;;
75928;SDS011;64606;44.062;2.986;2023-05-20T09:20:54;5.07;;;2.00;;
75928;SDS011;64606;44.062;2.986;2023-05-20T09:23:20;4.00;;;2.00;;
75928;SDS011;64606;44.062;2.986;2023-05-20T09:25:48;6.13;;;2.60;;
75928;SDS011;64606;44.062;2.986;2023-05-20T09:28:16;3.40;;;1.98;;
75928;SDS011;64606;44.062;2.986;2023-05-20T09:30:42;2.85;;;1.90;;
75928;SDS011;64606;44.062;2.986;2023-05-20T09:33:08;2.78;;;1.80;;
75928;SDS011;64606;44.062;2.986;2023-05-20T09:35:36;3.67;;;1.70;;
75928;SDS011;64606;44.062;2.986;2023-05-20T09:38:03;3.70;;;1.90;;
75928;SDS011;64606;44.062;2.986;2023-05-20T09:40:30;6.95;;;2.20;;
75928;SDS011;64606;44.062;2.986;2023-05-20T09:43:04;6.05;;;1.88;;
75928;SDS011;64606;44.062;2.986;2023-05-20T09:45:31;5.63;;;1.85;;
75928;SDS011;64606;44.062;2.986;2023-05-20T09:47:58;2.65;;;1.77;;
75928;SDS011;64606;44.062;2.986;2023-05-20T09:50:24;3.03;;;1.80;;
75928;SDS011;64606;44.062;2.986;2023-05-20T09:52:51;3.17;;;1.73;;
75928;SDS011;64606;44.062;2.986;2023-05-20T09:55:18;3.60;;;2.13;;
75928;SDS011;64606;44.062;2.986;2023-05-20T09:57:45;4.93;;;2.10;;
75928;SDS011;64606;44.062;2.986;2023-05-20T10:00:11;5.43;;;2.10;;
75928;SDS011;64606;44.062;2.986;2023-05-20T10:02:46;4.05;;;1.80;;
75928;SDS011;64606;44.062;2.986;2023-05-20T10:05:17;4.47;;;2.28;;
75928;SDS011;64606;44.062;2.986;2023-05-20T10:07:58;4.38;;;1.80;;
75928;SDS011;64606;44.062;2.986;2023-05-20T10:20:46;3.80;;;1.77;;
75928;SDS011;64606;44.062;2.986;2023-05-20T10:23:28;4.55;;;2.05;;
75928;SDS011;64606;44.062;2.986;2023-05-20T10:25:55;2.50;;;1.70;;
75928;SDS011;64606;44.062;2.986;2023-05-20T10:28:29;2.67;;;1.65;;
75928;SDS011;64606;44.062;2.986;2023-05-20T10:30:56;5.07;;;2.08;;
75928;SDS011;64606;44.062;2.986;2023-05-20T10:33:23;4.85;;;2.30;;
75928;SDS011;64606;44.062;2.986;2023-05-20T10:35:49;4.90;;;2.10;;
75928;SDS011;64606;44.062;2.986;2023-05-20T10:38:19;4.03;;;2.17;;
75928;SDS011;64606;44.062;2.986;2023-05-20T10:40:46;3.50;;;1.95;;
75928;SDS011;64606;44.062;2.986;2023-05-20T10:43:12;5.78;;;2.08;;
75928;SDS011;64606;44.062;2.986;2023-05-20T10:45:49;7.00;;;2.40;;
75928;SDS011;64606;44.062;2.986;2023-05-20T10:48:24;3.90;;;2.22;;
75928;SDS011;64606;44.062;2.986;2023-05-20T10:50:54;5.80;;;2.42;;
75928;SDS011;64606;44.062;2.986;2023-05-20T10:53:21;7.53;;;2.20;;
75928;SDS011;64606;44.062;2.986;2023-05-20T10:55:48;4.78;;;2.17;;
75928;SDS011;64606;44.062;2.986;2023-05-20T10:58:19;4.10;;;1.85;;
75928;SDS011;64606;44.062;2.986;2023-05-20T11:00:52;4.45;;;2.03;;
75928;SDS011;64606;44.062;2.986;2023-05-20T11:03:22;4.47;;;1.90;;
75928;SDS011;64606;44.062;2.986;2023-05-20T11:05:49;13.30;;;2.25;;
75928;SDS011;64606;44.062;2.986;2023-05-20T11:08:15;4.53;;;1.88;;
75928;SDS011;64606;44.062;2.986;2023-05-20T11:10:41;5.03;;;1.83;;
75928;SDS011;64606;44.062;2.986;2023-05-20T11:13:10;6.00;;;2.25;;
75928;SDS011;64606;44.062;2.986;2023-05-20T11:15:37;4.50;;;2.08;;
75928;SDS011;64606;44.062;2.986;2023-05-20T11:18:03;6.03;;;1.90;;
75928;SDS011;64606;44.062;2.986;2023-05-20T11:20:30;4.88;;;2.35;;
75928;SDS011;64606;44.062;2.986;2023-05-20T11:22:59;3.08;;;1.77;;
75928;SDS011;64606;44.062;2.986;2023-05-20T11:25:26;3.60;;;1.73;;
75928;SDS011;64606;44.062;2.986;2023-05-20T11:27:52;3.92;;;1.88;;
75928;SDS011;64606;44.062;2.986;2023-05-20T11:30:18;5.70;;;1.70;;
75928;SDS011;64606;44.062;2.986;2023-05-20T11:33:00;2.88;;;1.67;;
75928;SDS011;64606;44.062;2.986;2023-05-20T11:35:27;4.82;;;1.92;;
75928;SDS011;64606;44.062;2.986;2023-05-20T11:37:57;5.90;;;1.95;;
75928;SDS011;64606;44.062;2.986;2023-05-20T11:40:26;4.75;;;2.00;;
75928;SDS011;64606;44.062;2.986;2023-05-20T11:43:00;3.65;;;2.20;;
75928;SDS011;64606;44.062;2.986;2023-05-20T11:45:26;3.30;;;1.90;;
75928;SDS011;64606;44.062;2.986;2023-05-20T11:50:25;5.47;;;1.95;;
75928;SDS011;64606;44.062;2.986;2023-05-20T11:52:55;3.88;;;1.95;;
75928;SDS011;64606;44.062;2.986;2023-05-20T11:55:22;2.88;;;1.75;;
75928;SDS011;64606;44.062;2.986;2023-05-20T11:57:49;4.32;;;2.05;;
75928;SDS011;64606;44.062;2.986;2023-05-20T12:00:16;2.35;;;1.70;;
75928;SDS011;64606;44.062;2.986;2023-05-20T12:02:42;4.15;;;1.80;;
75928;SDS011;64606;44.062;2.986;2023-05-20T12:05:09;4.32;;;1.75;;
75928;SDS011;64606;44.062;2.986;2023-05-20T12:07:35;5.50;;;1.70;;
75928;SDS011;64606;44.062;2.986;2023-05-20T12:10:02;3.40;;;1.80;;
75928;SDS011;64606;44.062;2.986;2023-05-20T12:12:28;3.40;;;1.67;;
75928;SDS011;64606;44.062;2.986;2023-05-20T12:14:55;4.53;;;1.60;;
75928;SDS011;64606;44.062;2.986;2023-05-20T12:17:21;6.43;;;1.90;;
75928;SDS011;64606;44.062;2.986;2023-05-20T12:19:47;3.92;;;1.80;;
75928;SDS011;64606;44.062;2.986;2023-05-20T12:22:13;3.28;;;1.60;;
75928;SDS011;64606;44.062;2.986;2023-05-20T12:24:40;3.85;;;1.88;;
75928;SDS011;64606;44.062;2.986;2023-05-20T12:27:06;3.35;;;1.80;;
75928;SDS011;64606;44.062;2.986;2023-05-20T12:29:32;2.15;;;1.60;;
75928;SDS011;64606;44.062;2.986;2023-05-20T12:31:58;4.75;;;2.00;;
75928;SDS011;64606;44.062;2.986;2023-05-20T12:34:25;3.10;;;1.70;;
75928;SDS011;64606;44.062;2.986;2023-05-20T12:36:51;5.07;;;1.88;;
75928;SDS011;64606;44.062;2.986;2023-05-20T12:39:17;4.72;;;2.10;;
75928;SDS011;64606;44.062;2.986;2023-05-20T12:41:43;3.33;;;1.90;;
75928;SDS011;64606;44.062;2.986;2023-05-20T12:44:09;8.15;;;2.30;;
75928;SDS011;64606;44.062;2.986;2023-05-20T12:46:36;5.22;;;1.92;;
75928;SDS011;64606;44.062;2.986;2023-05-20T12:49:02;5.38;;;2.00;;
75928;SDS011;64606;44.062;2.986;2023-05-20T12:51:28;4.57;;;2.30;;
75928;SDS011;64606;44.062;2.986;2023-05-20T12:53:55;4.03;;;2.00;;
75928;SDS011;64606;44.062;2.986;2023-05-20T12:56:21;6.40;;;2.17;;
75928;SDS011;64606;44.062;2.986;2023-05-20T12:58:47;3.75;;;1.90;;
75928;SDS011;64606;44.062;2.986;2023-05-20T13:01:13;5.20;;;2.13;;
75928;SDS011;64606;44.062;2.986;2023-05-20T13:03:39;9.80;;;2.50;;
75928;SDS011;64606;44.062;2.986;2023-05-20T13:06:06;10.23;;;2.30;;
75928;SDS011;64606;44.062;2.986;2023-05-20T13:08:32;2.83;;;2.05;;
75928;SDS011;64606;44.062;2.986;2023-05-20T13:10:58;8.55;;;2.25;;
75928;SDS011;64606;44.062;2.986;2023-05-20T13:13:24;4.72;;;2.05;;
75928;SDS011;64606;44.062;2.986;2023-05-20T13:15:51;6.80;;;2.10;;
75928;SDS011;64606;44.062;2.986;2023-05-20T13:18:17;5.03;;;2.13;;
75928;SDS011;64606;44.062;2.986;2023-05-20T13:20:44;4.40;;;2.00;;
75928;SDS011;64606;44.062;2.986;2023-05-20T13:23:10;4.75;;;2.10;;
75928;SDS011;64606;44.062;2.986;2023-05-20T13:25:36;7.10;;;2.05;;
75928;SDS011;64606;44.062;2.986;2023-05-20T13:28:03;3.58;;;1.90;;
75928;SDS011;64606;44.062;2.986;2023-05-20T13:30:29;6.40;;;2.17;;
75928;SDS011;64606;44.062;2.986;2023-05-20T13:32:56;3.45;;;2.00;;
75928;SDS011;64606;44.062;2.986;2023-05-20T13:35:22;5.13;;;2.00;;
75928;SDS011;64606;44.062;2.986;2023-05-20T13:37:48;5.47;;;2.13;;
75928;SDS011;64606;44.062;2.986;2023-05-20T13:40:14;4.55;;;2.20;;
75928;SDS011;64606;44.062;2.986;2023-05-20T13:42:41;6.05;;;1.92;;
75928;SDS011;64606;44.062;2.986;2023-05-20T13:45:08;3.90;;;1.75;;
75928;SDS011;64606;44.062;2.986;2023-05-20T13:47:34;5.13;;;2.05;;
75928;SDS011;64606;44.062;2.986;2023-05-20T13:50:00;6.05;;;2.28;;
75928;SDS011;64606;44.062;2.986;2023-05-20T13:52:26;4.65;;;2.30;;
75928;SDS011;64606;44.062;2.986;2023-05-20T13:54:52;7.82;;;2.40;;
75928;SDS011;64606;44.062;2.986;2023-05-20T13:57:19;5.68;;;2.20;;
75928;SDS011;64606;44.062;2.986;2023-05-20T13:59:45;4.15;;;2.03;;
75928;SDS011;64606;44.062;2.986;2023-05-20T14:02:11;4.70;;;2.00;;
75928;SDS011;64606;44.062;2.986;2023-05-20T14:04:37;4.68;;;2.08;;
75928;SDS011;64606;44.062;2.986;2023-05-20T14:07:04;6.03;;;2.00;;
75928;SDS011;64606;44.062;2.986;2023-05-20T14:09:30;5.40;;;2.00;;
75928;SDS011;64606;44.062;2.986;2023-05-20T14:11:56;7.53;;;2.20;;
75928;SDS011;64606;44.062;2.986;2023-05-20T14:14:23;4.45;;;2.47;;
75928;SDS011;64606;44.062;2.986;2023-05-20T14:16:49;7.55;;;2.50;;
75928;SDS011;64606;44.062;2.986;2023-05-20T14:19:15;4.68;;;2.20;;
75928;SDS011;64606;44.062;2.986;2023-05-20T14:21:41;5.57;;;2.20;;
75928;SDS011;64606;44.062;2.986;2023-05-20T14:24:07;5.53;;;2.50;;
75928;SDS011;64606;44.062;2.986;2023-05-20T14:26:33;4.43;;;2.20;;
75928;SDS011;64606;44.062;2.986;2023-05-20T14:28:59;7.43;;;2.55;;
75928;SDS011;64606;44.062;2.986;2023-05-20T14:31:26;8.70;;;3.13;;
75928;SDS011;64606;44.062;2.986;2023-05-20T14:33:52;10.75;;;3.65;;
75928;SDS011;64606;44.062;2.986;2023-05-20T14:36:18;12.02;;;4.28;;
75928;SDS011;64606;44.062;2.986;2023-05-20T14:38:44;11.02;;;5.10;;
75928;SDS011;64606;44.062;2.986;2023-05-20T14:41:10;15.43;;;6.28;;
75928;SDS011;64606;44.062;2.986;2023-05-20T14:43:36;21.92;;;7.75;;
75928;SDS011;64606;44.062;2.986;2023-05-20T14:46:02;21.55;;;9.07;;
75928;SDS011;64606;44.062;2.986;2023-05-20T14:48:28;21.70;;;9.93;;
75928;SDS011;64606;44.062;2.986;2023-05-20T14:50:54;22.52;;;9.90;;
75928;SDS011;64606;44.062;2.986;2023-05-20T14:53:21;19.40;;;9.38;;
75928;SDS011;64606;44.062;2.986;2023-05-20T14:55:47;13.63;;;7.82;;